Time;durP1;ratioP1;P1;durP2;ratioP2;P2;SDS_P1;SDS_P2;PMS_P1;PMS_P2;Temp;Humidity;BMP_temperature;BMP_pressure;BME280_temperature;BME280_humidity;BME280_pressure;Samples;Min_cycle;Max_cycle;Signal;HPM_P1;HPM_P2
2023/12/20 00:02:23;;;;;;;15.32;2.95;;;;;;;;;;5055749;28;20047;-73
2023/12/20 00:04:49;;;;;;;18.10;2.55;;;;;;;;;;5071541;28;20036;-73
2023/12/20 00:07:16;;;;;;;18.92;2.42;;;;;;;;;;5073545;28;20645;-74
2023/12/20 00:09:42;;;;;;;14.88;2.88;;;;;;;;;;5091551;28;20097;-74
2023/12/20 00:12:08;;;;;;;11.30;2.65;;;;;;;;;;5073071;28;20524;-74
2023/12/20 00:14:34;;;;;;;11.98;2.90;;;;;;;;;;5073217;28;20184;-73
2023/12/20 00:17:00;;;;;;;13.52;2.63;;;;;;;;;;5057106;28;20440;-74
2023/12/20 00:19:26;;;;;;;19.75;2.72;;;;;;;;;;5073459;28;20047;-73
2023/12/20 00:21:52;;;;;;;16.65;2.95;;;;;;;;;;5072953;28;20036;-73
2023/12/20 00:24:18;;;;;;;15.27;3.03;;;;;;;;;;5073419;28;20521;-73
2023/12/20 00:26:44;;;;;;;20.45;3.08;;;;;;;;;;5073139;28;20203;-73
2023/12/20 00:29:09;;;;;;;17.67;3.28;;;19.20;25.90;;;;;;5077117;28;20517;-73
2023/12/20 00:31:35;;;;;;;10.43;2.53;;;18.80;27.00;;;;;;5076554;28;20043;-73
2023/12/20 00:34:01;;;;;;;18.77;2.70;;;19.00;26.90;;;;;;5076141;28;20462;-73
2023/12/20 00:36:27;;;;;;;18.95;4.68;;;;;;;;;;5060878;28;20040;-73
2023/12/20 00:38:53;;;;;;;14.15;3.05;;;;;;;;;;5077260;28;20055;-72
2023/12/20 00:41:19;;;;;;;20.58;3.97;;;;;;;;;;5076099;28;20044;-74
2023/12/20 00:43:45;;;;;;;15.50;3.10;;;;;;;;;;5060932;28;20035;-73
2023/12/20 00:46:11;;;;;;;19.95;3.30;;;;;;;;;;5076836;28;20097;-73
2023/12/20 00:48:36;;;;;;;17.42;2.92;;;19.30;28.20;;;;;;5076886;28;20039;-74
2023/12/20 00:51:03;;;;;;;18.15;3.05;;;18.80;25.80;;;;;;5059809;28;20423;-73
2023/12/20 00:53:29;;;;;;;17.40;3.40;;;;;;;;;;5077132;28;20059;-73
2023/12/20 00:55:55;;;;;;;26.98;3.47;;;18.90;25.10;;;;;;5076755;28;20040;-74
2023/12/20 00:58:21;;;;;;;14.20;3.30;;;;;;;;;;5060382;28;20491;-74
2023/12/20 01:00:46;;;;;;;19.85;2.83;;;19.20;25.70;;;;;;5075806;28;20527;-74
2023/12/20 01:03:12;;;;;;;18.42;4.30;;;19.40;23.80;;;;;;5076644;28;20159;-74
2023/12/20 01:05:38;;;;;;;21.42;4.13;;;19.00;25.50;;;;;;5059936;28;20517;-74
2023/12/20 01:08:04;;;;;;;24.67;5.18;;;19.30;25.20;;;;;;5077241;28;20043;-73
2023/12/20 01:10:29;;;;;;;17.90;4.80;;;19.00;24.80;;;;;;5075646;28;20199;-72
2023/12/20 01:12:55;;;;;;;27.02;4.30;;;18.90;23.60;;;;;;5076827;28;20161;-73
2023/12/20 01:15:21;;;;;;;17.58;3.05;;;;;;;;;;5076670;28;20495;-73
2023/12/20 01:17:47;;;;;;;19.15;4.10;;;;;;;;;;5076933;28;20048;-72
2023/12/20 01:20:13;;;;;;;19.50;4.57;;;;;;;;;;5076573;28;20507;-74
2023/12/20 01:22:39;;;;;;;26.05;4.20;;;;;;;;;;5059408;28;20040;-73
2023/12/20 01:25:06;;;;;;;17.73;3.00;;;;;;;;;;5059314;28;20097;-73
2023/12/20 01:27:32;;;;;;;19.40;4.05;;;19.20;15.10;;;;;;5076232;28;20040;-73
2023/12/20 01:29:58;;;;;;;20.33;4.88;;;;;;;;;;5059991;28;20105;-73
2023/12/20 01:32:24;;;;;;;20.25;4.93;;;;;;;;;;5075786;28;20044;-73
2023/12/20 01:34:50;;;;;;;14.80;3.40;;;;;;;;;;5059736;28;20044;-72
2023/12/20 01:37:16;;;;;;;25.75;3.88;;;;;;;;;;5076380;28;20044;-74
2023/12/20 01:39:42;;;;;;;14.82;3.53;;;;;;;;;;5075521;28;20603;-73
2023/12/20 01:42:08;;;;;;;22.00;3.55;;;;;;;;;;5075853;28;20180;-73
2023/12/20 01:44:34;;;;;;;20.25;3.78;;;;;;;;;;5076030;28;20502;-73
2023/12/20 01:47:00;;;;;;;18.50;3.10;;;;;;;;;;5059566;28;20040;-73
2023/12/20 01:49:26;;;;;;;29.98;5.65;;;;;;;;;;5076158;28;20044;-74
2023/12/20 01:51:52;;;;;;;22.33;2.97;;;;;;;;;;5075652;28;20373;-73
2023/12/20 01:54:20;;;;;;;26.95;4.57;;;19.30;11.20;;;;;;5075959;28;20048;-73
2023/12/20 01:56:46;;;;;;;29.63;4.78;;;19.30;14.70;;;;;;5076025;28;20043;-73
2023/12/20 01:59:12;;;;;;;28.30;4.95;;;19.50;15.70;;;;;;5076092;28;20398;-74
2023/12/20 02:01:38;;;;;;;16.40;4.28;;;19.40;15.60;;;;;;5075149;28;20047;-73
2023/12/20 02:04:04;;;;;;;20.88;5.07;;;;;;;;;;5075811;28;20032;-73
2023/12/20 02:06:33;;;;;;;26.50;4.28;;;;;;;;;;5075721;28;20036;-73
2023/12/20 02:09:00;;;;;;;24.85;4.50;;;19.60;7.80;;;;;;5075712;28;20036;-73
2023/12/20 02:11:26;;;;;;;27.55;4.93;;;19.50;8.80;;;;;;5074948;28;20043;-74
2023/12/20 02:13:52;;;;;;;19.75;3.95;;;19.50;8.90;;;;;;5075568;28;20051;-74
2023/12/20 02:16:17;;;;;;;24.25;4.43;;;19.70;4.20;;;;;;5058906;28;20422;-74
2023/12/20 02:18:46;;;;;;;17.77;3.97;;;;;;;;;;5075882;28;20039;-74
2023/12/20 02:21:12;;;;;;;30.48;5.10;;;;;;;;;;5074570;28;20067;-73
2023/12/20 02:23:38;;;;;;;28.52;4.40;;;19.40;4.70;;;;;;5058752;28;20488;-74
2023/12/20 02:26:04;;;;;;;30.75;4.50;;;19.30;2.10;;;;;;5058589;28;20039;-74
2023/12/20 02:28:31;;;;;;;24.15;3.97;;;19.50;4.50;;;;;;5075405;28;20032;-73
2023/12/20 02:30:57;;;;;;;32.60;4.53;;;19.60;4.70;;;;;;5074739;28;20514;-74
2023/12/20 02:33:23;;;;;;;24.00;4.28;;;19.70;5.00;;;;;;5058939;28;20043;-73
2023/12/20 02:35:49;;;;;;;24.83;5.03;;;;;;;;;;5058372;28;20048;-72
2023/12/20 02:38:15;;;;;;;29.17;5.22;;;;;;;;;;5075528;28;20050;-72
2023/12/20 02:40:41;;;;;;;27.92;4.75;;;;;;;;;;5074544;28;20036;-73
2023/12/20 02:43:07;;;;;;;30.13;5.03;;;;;;;;;;5058312;28;20051;-73
2023/12/20 02:45:33;;;;;;;30.13;6.25;;;;;;;;;;5075131;28;20036;-73
2023/12/20 02:47:58;;;;;;;22.85;5.00;;;;;;;;;;5074895;28;20035;-74
2023/12/20 02:50:25;;;;;;;29.92;4.57;;;;;;;;;;5074047;28;20039;-73
2023/12/20 02:52:51;;;;;;;34.80;7.00;;;;;;;;;;5075069;28;20487;-74
2023/12/20 02:55:17;;;;;;;31.63;4.30;;;;;;;;;;5058022;28;20055;-71
2023/12/20 02:57:42;;;;;;;25.35;4.15;;;19.20;3.20;;;;;;5058059;28;20036;-73
2023/12/20 03:00:10;;;;;;;33.17;5.70;;;;;;;;;;5058012;28;20513;-72
2023/12/20 03:02:36;;;;;;;23.27;4.72;;;19.30;3.10;;;;;;5074139;28;20044;-73
2023/12/20 03:05:02;;;;;;;22.10;4.22;;;19.30;2.80;;;;;;5074442;28;20513;-74
2023/12/20 03:07:28;;;;;;;23.90;4.38;;;;;;;;;;5074599;28;20040;-74
2023/12/20 03:09:54;;;;;;;34.13;6.88;;;;;;;;;;5074164;28;20079;-73
2023/12/20 03:12:20;;;;;;;28.85;4.68;;;;;;;;;;5073919;28;20044;-73
2023/12/20 03:14:46;;;;;;;29.02;4.47;;;;;;;;;;5074553;28;20069;-74
2023/12/20 03:17:12;;;;;;;22.38;5.28;;;;;;;;;;5057823;28;20090;-73
2023/12/20 03:19:38;;;;;;;20.67;4.93;;;;;;;;;;5074087;28;20518;-74
2023/12/20 03:22:04;;;;;;;22.92;4.75;;;;;;;;;;5073689;28;20040;-74
2023/12/20 03:24:30;;;;;;;41.08;5.28;;;;;;;;;;5074486;28;20043;-73
2023/12/20 03:26:55;;;;;;;27.23;5.47;;;19.10;1.00;;;;;;5074492;28;20044;-73
2023/12/20 03:29:21;;;;;;;22.20;4.68;;;19.10;1.00;;;;;;5057627;28;20514;-73
2023/12/20 03:31:47;;;;;;;33.00;5.30;;;;;;;;;;5057142;28;20044;-72
2023/12/20 03:34:13;;;;;;;26.13;5.13;;;;;;;;;;5074174;28;20051;-74
2023/12/20 03:36:39;;;;;;;21.50;4.22;;;;;;;;;;5074172;28;20047;-74
2023/12/20 03:39:05;;;;;;;23.20;4.72;;;;;;;;;;5074085;28;20048;-74
2023/12/20 03:41:30;;;;;;;20.45;4.45;;;19.30;1.00;;;;;;5073377;28;20093;-73
2023/12/20 03:43:56;;;;;;;28.58;5.00;;;19.00;1.00;;;;;;5074021;28;20483;-73
2023/12/20 03:46:22;;;;;;;33.08;4.88;;;;;;;;;;5073762;28;20043;-73
2023/12/20 03:48:47;;;;;;;21.30;4.50;;;18.90;1.00;;;;;;5073789;28;20048;-74
2023/12/20 03:51:13;;;;;;;26.65;5.78;;;;;;;;;;5073235;28;20044;-73
2023/12/20 03:53:40;;;;;;;36.35;5.50;;;;;;;;;;5073879;28;20067;-73
2023/12/20 03:56:06;;;;;;;22.77;4.63;;;;;;;;;;5073688;28;20055;-72
2023/12/20 03:58:32;;;;;;;26.13;4.30;;;18.90;1.00;;;;;;5073815;28;20043;-73
2023/12/20 04:00:58;;;;;;;26.73;4.65;;;;;;;;;;5072966;28;20044;-73
2023/12/20 04:03:24;;;;;;;31.73;4.30;;;;;;;;;;5073674;28;20174;-74
2023/12/20 04:05:50;;;;;;;29.50;6.05;;;;;;;;;;5073603;28;20040;-73
2023/12/20 04:08:15;;;;;;;29.23;5.88;;;18.80;1.00;;;;;;5073479;28;20066;-73
2023/12/20 04:10:41;;;;;;;25.48;4.63;;;;;;;;;;5089002;22;20123;-68
2023/12/20 04:13:07;;;;;;;35.70;6.35;;;18.70;1.00;;;;;;5050542;28;20041;-68
2023/12/20 04:15:33;;;;;;;26.40;3.90;;;;;;;;;;5051351;28;20048;-68
2023/12/20 04:17:59;;;;;;;31.02;7.00;;;;;;;;;;5050263;28;20033;-67
2023/12/20 04:20:25;;;;;;;20.58;5.07;;;;;;;;;;5050113;28;20563;-68
2023/12/20 04:22:51;;;;;;;31.17;6.55;;;;;;;;;;5050050;28;20041;-68
2023/12/20 04:25:17;;;;;;;34.55;5.68;;;;;;;;;;5049997;28;20043;-68
2023/12/20 04:27:43;;;;;;;31.70;4.93;;;;;;;;;;5050114;28;20044;-68
2023/12/20 04:30:09;;;;;;;23.25;5.55;;;18.60;1.00;;;;;;5050368;28;20045;-68
2023/12/20 04:32:34;;;;;;;26.63;6.03;;;18.60;1.00;;;;;;5050039;28;20041;-68
2023/12/20 04:35:00;;;;;;;29.10;4.75;;;19.90;1.00;;;;;;5050299;28;20124;-68
2023/12/20 04:37:26;;;;;;;21.27;4.38;;;;;;;;;;5050177;28;20098;-68
2023/12/20 04:39:52;;;;;;;25.50;5.35;;;;;;;;;;5049971;28;20052;-68
2023/12/20 04:42:18;;;;;;;21.83;3.92;;;;;;;;;;5050484;28;20029;-68
2023/12/20 04:44:44;;;;;;;22.80;5.00;;;;;;;;;;5049849;28;20106;-68
2023/12/20 04:47:10;;;;;;;22.58;5.78;;;;;;;;;;5050160;28;20136;-69
2023/12/20 04:49:36;;;;;;;22.92;5.45;;;;;;;;;;5050157;28;20041;-68
2023/12/20 04:52:02;;;;;;;25.48;4.93;;;18.40;1.00;;;;;;5049484;28;20540;-68
2023/12/20 04:54:28;;;;;;;26.20;4.75;;;;;;;;;;5051034;28;20036;-67
2023/12/20 04:56:53;;;;;;;29.85;5.03;;;19.30;1.00;;;;;;5049867;28;20119;-68
2023/12/20 04:59:19;;;;;;;23.95;4.85;;;19.70;1.00;;;;;;5049831;28;20033;-68
2023/12/20 05:01:45;;;;;;;24.55;4.00;;;;;;;;;;5049100;28;20041;-68
2023/12/20 05:04:11;;;;;;;26.58;5.53;;;;;;;;;;5049672;28;20593;-68
2023/12/20 05:06:37;;;;;;;29.92;4.97;;;;;;;;;;5033057;28;20037;-68
2023/12/20 05:09:03;;;;;;;27.77;4.47;;;;;;;;;;5050085;28;20335;-68
2023/12/20 05:11:29;;;;;;;31.65;5.03;;;;;;;;;;5049186;28;20500;-68
2023/12/20 05:13:55;;;;;;;26.25;5.05;;;;;;;;;;5051509;28;20052;-68
2023/12/20 05:16:20;;;;;;;26.85;4.97;;;18.30;1.00;;;;;;5053276;28;20514;-68
2023/12/20 05:18:48;;;;;;;31.20;4.95;;;18.30;1.00;;;;;;5053662;28;20037;-68
2023/12/20 05:21:14;;;;;;;37.05;5.60;;;18.20;1.00;;;;;;5052473;28;20052;-68
2023/12/20 05:23:40;;;;;;;31.42;5.82;;;;;;;;;;5053329;28;20037;-68
2023/12/20 05:26:06;;;;;;;24.35;4.45;;;;;;;;;;5053034;28;20048;-68
2023/12/20 05:28:32;;;;;;;26.05;5.35;;;;;;;;;;5053200;28;20075;-69
2023/12/20 05:30:58;;;;;;;26.13;4.65;;;;;;;;;;5052693;28;20110;-67
2023/12/20 05:33:24;;;;;;;25.15;5.50;;;;;;;;;;5053151;28;20049;-68
2023/12/20 05:35:50;;;;;;;26.48;4.72;;;;;;;;;;5052807;28;20044;-69
2023/12/20 05:38:16;;;;;;;32.58;6.05;;;;;;;;;;5053000;28;20052;-69
2023/12/20 05:40:42;;;;;;;20.13;4.65;;;;;;;;;;5052328;28;20048;-68
2023/12/20 05:43:08;;;;;;;31.77;6.20;;;18.30;1.00;;;;;;5054094;28;20672;-68
2023/12/20 05:45:34;;;;;;;27.92;4.72;;;18.20;1.00;;;;;;5052788;28;20033;-68
2023/12/20 05:47:59;;;;;;;32.92;5.47;;;18.40;1.00;;;;;;5052495;28;20079;-68
2023/12/20 05:50:25;;;;;;;29.15;5.40;;;18.20;1.00;;;;;;5052519;28;20420;-68
2023/12/20 05:52:51;;;;;;;27.80;5.03;;;;;;;;;;5052368;28;20047;-69
2023/12/20 05:55:17;;;;;;;23.95;4.65;;;;;;;;;;5052475;28;20501;-68
2023/12/20 05:57:43;;;;;;;25.90;5.32;;;;;;;;;;5052869;28;20045;-68
2023/12/20 06:00:09;;;;;;;34.25;5.30;;;;;;;;;;5052521;28;20721;-68
2023/12/20 06:02:36;;;;;;;28.48;6.57;;;;;;;;;;5051845;28;20045;-69
2023/12/20 06:05:03;;;;;;;30.02;4.65;;;;;;;;;;5052586;28;20461;-68
2023/12/20 06:07:29;;;;;;;28.45;7.20;;;18.30;1.00;;;;;;5035775;28;20044;-68
2023/12/20 06:09:55;;;;;;;27.63;4.78;;;18.40;1.00;;;;;;5052279;28;20041;-68
2023/12/20 06:12:20;;;;;;;29.98;5.45;;;18.10;1.00;;;;;;5051601;28;20044;-68
2023/12/20 06:14:46;;;;;;;29.13;6.22;;;;;;;;;;5052196;28;20052;-68
2023/12/20 06:17:12;;;;;;;29.55;5.20;;;;;;;;;;5052251;28;20045;-68
2023/12/20 06:19:38;;;;;;;26.00;6.72;;;;;;;;;;5051877;28;20120;-68
2023/12/20 06:22:04;;;;;;;23.35;5.50;;;;;;;;;;5051016;28;20564;-68
2023/12/20 06:24:30;;;;;;;25.98;6.53;;;18.00;1.00;;;;;;5052050;28;20036;-68
2023/12/20 06:26:55;;;;;;;34.65;5.25;;;18.20;1.00;;;;;;5051880;28;20041;-68
2023/12/20 06:29:21;;;;;;;30.02;5.15;;;17.90;1.00;;;;;;5052196;28;20037;-68
2023/12/20 06:31:47;;;;;;;28.30;5.55;;;;;;;;;;5034583;28;20118;-69
2023/12/20 06:34:13;;;;;;;22.15;4.85;;;;;;;;;;5051781;28;20041;-68
2023/12/20 06:36:39;;;;;;;20.02;4.70;;;;;;;;;;5051643;28;20098;-68
2023/12/20 06:39:05;;;;;;;35.33;6.22;;;;;;;;;;5052179;28;20045;-69
2023/12/20 06:41:30;;;;;;;21.77;4.00;;;17.30;1.00;;;;;;5051081;28;20128;-68
2023/12/20 06:43:56;;;;;;;24.48;4.95;;;;;;;;;;5051347;28;20037;-69
2023/12/20 06:46:22;;;;;;;26.05;5.53;;;17.70;1.00;;;;;;5054730;28;20033;-68
2023/12/20 06:48:48;;;;;;;29.33;4.95;;;;;;;;;;5044614;28;20460;-68
2023/12/20 06:51:17;;;;;;;33.65;5.60;;;17.20;1.00;;;;;;5050783;28;20045;-68
2023/12/20 06:53:43;;;;;;;32.75;6.13;;;17.30;1.00;;;;;;5051556;28;20124;-67
2023/12/20 06:56:11;;;;;;;27.55;6.07;;;17.30;1.00;;;;;;5051302;28;20128;-69
2023/12/20 06:58:37;;;;;;;29.15;5.40;;;17.00;1.00;;;;;;5051397;28;20049;-68
2023/12/20 07:01:04;;;;;;;25.20;5.15;;;;;;;;;;5033913;28;20093;-68
2023/12/20 07:03:30;;;;;;;32.50;4.75;;;;;;;;;;5043644;28;20098;-68
2023/12/20 07:05:55;;;;;;;22.55;4.93;;;17.30;1.00;;;;;;5046972;28;20040;-68
2023/12/20 07:08:21;;;;;;;26.48;5.13;;;;;;;;;;5047187;28;20496;-68
2023/12/20 07:10:47;;;;;;;25.45;4.28;;;;;;;;;;5046287;28;20048;-68
2023/12/20 07:13:13;;;;;;;34.50;5.88;;;17.10;1.00;;;;;;5047206;28;20131;-69
2023/12/20 07:15:40;;;;;;;28.20;5.32;;;;;;;;;;5042134;28;20433;-68
2023/12/20 07:18:06;;;;;;;30.48;6.05;;;17.00;1.00;;;;;;5046212;28;20509;-68
2023/12/20 07:20:32;;;;;;;28.42;5.60;;;;;;;;;;5025441;28;20038;-68
2023/12/20 07:22:59;;;;;;;28.98;5.47;;;;;;;;;;5046870;28;20131;-68
2023/12/20 07:25:25;;;;;;;28.25;6.35;;;;;;;;;;5032520;28;20166;-68
2023/12/20 07:27:51;;;;;;;25.75;4.63;;;;;;;;;;5045964;28;20048;-69
2023/12/20 07:30:17;;;;;;;28.77;5.70;;;;;;;;;;5029250;28;20068;-69
2023/12/20 07:32:43;;;;;;;32.50;5.78;;;;;;;;;;5046123;28;20130;-68
2023/12/20 07:35:09;;;;;;;24.27;5.50;;;;;;;;;;5030029;28;20077;-68
2023/12/20 07:37:35;;;;;;;22.50;4.88;;;;;;;;;;5047316;28;20124;-68
2023/12/20 07:40:01;;;;;;;34.05;4.72;;;;;;;;;;5049176;28;20056;-68
2023/12/20 07:42:27;;;;;;;19.98;5.28;;;17.10;1.00;;;;;;5049272;28;20041;-68
2023/12/20 07:44:52;;;;;;;22.52;4.95;;;17.10;1.00;;;;;;5050491;28;20039;-69
2023/12/20 07:47:21;;;;;;;31.83;5.32;;;;;;;;;;5050601;28;20424;-68
2023/12/20 07:49:51;;;;;;;25.23;4.45;;;17.10;1.00;;;;;;5033820;28;20033;-69
2023/12/20 07:52:18;;;;;;;27.48;4.95;;;17.20;1.00;;;;;;5033194;28;20029;-70
2023/12/20 07:54:44;;;;;;;26.63;5.32;;;17.10;1.00;;;;;;5050452;28;20373;-70
2023/12/20 07:57:10;;;;;;;26.08;4.80;;;16.80;1.00;;;;;;5050682;28;20041;-69
2023/12/20 07:59:37;;;;;;;24.95;4.72;;;;;;;;;;5050337;28;20037;-69
2023/12/20 08:02:03;;;;;;;24.73;5.93;;;;;;;;;;5050013;28;20095;-68
2023/12/20 08:04:28;;;;;;;41.63;6.28;;;16.70;1.00;;;;;;5050495;28;20458;-69
2023/12/20 08:06:54;;;;;;;32.03;5.35;;;16.70;1.00;;;;;;5050250;28;20123;-69
2023/12/20 08:09:19;;;;;;;23.70;4.03;;;16.40;1.00;;;;;;5050343;28;20041;-69
2023/12/20 08:11:46;;;;;;;12.73;2.67;;;16.20;1.00;;;;;;5032925;28;20174;-69
2023/12/20 08:14:12;;;;;;;18.80;3.80;;;16.10;1.00;;;;;;5050347;28;20493;-69
2023/12/20 08:16:37;;;;;;;11.95;2.30;;;;;;;;;;5045266;28;20036;-69
2023/12/20 08:19:03;;;;;;;7.60;2.10;;;;;;;;;;5049096;28;20116;-70
2023/12/20 08:21:29;;;;;;;13.10;2.95;;;;;;;;;;5032434;28;20428;-70
2023/12/20 08:23:55;;;;;;;23.38;4.03;;;18.70;1.00;;;;;;5033361;28;20041;-69
2023/12/20 08:26:22;;;;;;;30.23;4.07;;;;;;;;;;5049686;28;20629;-70
2023/12/20 08:28:48;;;;;;;25.58;5.35;;;18.70;1.00;;;;;;5067877;28;20146;-70
2023/12/20 08:31:18;;;;;;;32.15;5.35;;;;;;;;;;5052213;28;20074;-69
2023/12/20 08:33:45;;;;;;;30.88;4.88;;;16.20;1.00;;;;;;5051610;28;20071;-68
2023/12/20 08:36:11;;;;;;;34.30;6.10;;;16.20;1.00;;;;;;5051900;28;20045;-70
2023/12/20 08:38:37;;;;;;;27.08;5.65;;;16.10;1.00;;;;;;5049965;28;20097;-69
2023/12/20 08:41:04;;;;;;;35.42;8.23;;;;;;;;;;5049118;28;20037;-70
2023/12/20 08:43:31;;;;;;;32.45;6.75;;;;;;;;;;5055721;28;20057;-70
2023/12/20 08:45:57;;;;;;;29.30;5.05;;;;;;;;;;5042299;28;20036;-70
2023/12/20 08:48:23;;;;;;;22.13;4.53;;;;;;;;;;5053035;28;20116;-70
2023/12/20 08:50:51;;;;;;;25.00;4.88;;;;;;;;;;5058892;28;20594;-70
2023/12/20 08:53:18;;;;;;;30.55;6.55;;;;;;;;;;5064951;28;20182;-70
2023/12/20 08:55:43;;;;;;;26.35;5.68;;;16.40;1.00;;;;;;5056720;28;20524;-70
2023/12/20 08:58:09;;;;;;;20.85;4.43;;;;;;;;;;5073683;28;20110;-70
2023/12/20 09:00:35;;;;;;;31.23;4.75;;;;;;;;;;5072826;28;20044;-69
2023/12/20 09:03:02;;;;;;;29.85;4.80;;;;;;;;;;5066859;28;20032;-70
2023/12/20 09:05:28;;;;;;;27.25;4.85;;;16.70;1.00;;;;;;5062312;28;20037;-70
2023/12/20 09:07:54;;;;;;;27.90;6.28;;;;;;;;;;5057229;28;20035;-70
2023/12/20 09:10:22;;;;;;;24.02;4.93;;;;;;;;;;5036178;28;20044;-69
2023/12/20 09:12:51;;;;;;;8.05;2.63;;;;;;;;;;5051103;28;20119;-68
2023/12/20 09:15:17;;;;;;;6.75;1.70;;;;;;;;;;5051140;28;20077;-68
2023/12/20 09:17:43;;;;;;;7.03;2.60;;;;;;;;;;5050175;28;20045;-68
2023/12/20 09:20:10;;;;;;;8.77;2.60;;;;;;;;;;5051219;28;20117;-69
2023/12/20 09:22:38;;;;;;;10.57;2.03;;;;;;;;;;5050629;28;20079;-69
2023/12/20 09:25:04;;;;;;;8.45;2.65;;;;;;;;;;5034486;28;20135;-68
2023/12/20 09:27:30;;;;;;;14.10;2.45;;;;;;;;;;5051236;28;20519;-69
2023/12/20 09:29:56;;;;;;;9.55;1.92;;;;;;;;;;5034709;28;20040;-68
2023/12/20 09:32:22;;;;;;;7.03;2.03;;;;;;;;;;5051906;28;20037;-69
2023/12/20 09:34:48;;;;;;;7.25;1.70;;;;;;;;;;5034631;28;20041;-68
2023/12/20 09:37:14;;;;;;;13.88;2.20;;;;;;;;;;5050898;28;20048;-69
2023/12/20 09:39:40;;;;;;;5.38;1.92;;;;;;;;;;5034493;28;20124;-70
2023/12/20 09:42:07;;;;;;;5.60;1.42;;;;;;;;;;5033874;28;20140;-69
2023/12/20 09:44:36;;;;;;;6.97;1.30;;;;;;;;;;5055567;28;20089;-69
2023/12/20 09:47:03;;;;;;;13.20;2.25;;;;;;;;;;5051039;28;20041;-71
2023/12/20 09:49:30;;;;;;;13.73;2.40;;;;;;;;;;5034189;28;20055;-68
2023/12/20 09:51:56;;;;;;;12.85;3.05;;;;;;;;;;5049987;28;20041;-70
2023/12/20 09:54:22;;;;;;;12.63;1.85;;;;;;;;;;5034246;28;20040;-70
2023/12/20 09:56:48;;;;;;;13.75;2.20;;;;;;;;;;5050431;28;20048;-69
2023/12/20 09:59:15;;;;;;;11.60;2.08;;;;;;;;;;5050237;28;20037;-69
2023/12/20 10:01:41;;;;;;;19.42;2.45;;;15.70;1.00;;;;;;5050933;28;20052;-70
2023/12/20 10:04:09;;;;;;;21.40;2.28;;;;;;;;;;5052432;28;20388;-68
2023/12/20 10:06:39;;;;;;;15.88;1.80;;;15.80;1.00;;;;;;5052218;28;20047;-70
2023/12/20 10:09:05;;;;;;;18.88;3.78;;;;;;;;;;5053329;28;20497;-69
2023/12/20 10:11:31;;;;;;;9.68;1.92;;;15.80;1.00;;;;;;5060757;28;20037;-70
2023/12/20 10:14:01;;;;;;;10.90;2.25;;;;;;;;;;5059890;28;20036;-70
2023/12/20 10:16:27;;;;;;;12.63;2.80;;;;;;;;;;5062428;28;20068;-69
2023/12/20 10:18:54;;;;;;;15.75;2.58;;;15.70;1.00;;;;;;5060507;28;20503;-71
2023/12/20 10:21:19;;;;;;;12.30;2.15;;;15.90;1.00;;;;;;5060822;28;20086;-70
2023/12/20 10:23:46;;;;;;;14.52;1.98;;;;;;;;;;5062131;28;20072;-70
2023/12/20 10:26:20;;;;;;;9.57;2.78;;;;;;;;;;5054434;28;20135;-72
2023/12/20 10:28:46;;;;;;;7.95;2.38;;;;;;;;;;5051690;28;20053;-70
2023/12/20 10:31:26;;;;;;;14.77;2.60;;;;;;;;;;5050992;28;20047;-69
2023/12/20 10:33:52;;;;;;;12.40;2.38;;;;;;;;;;5057037;28;20423;-70
2023/12/20 10:36:17;;;;;;;12.60;2.95;;;16.10;1.00;;;;;;5034969;28;20137;-70
2023/12/20 10:38:44;;;;;;;11.07;2.63;;;16.10;1.00;;;;;;5051603;28;20416;-70
2023/12/20 10:41:10;;;;;;;19.38;3.08;;;;;;;;;;5051240;28;20451;-70
2023/12/20 10:43:37;;;;;;;12.40;2.22;;;16.30;1.00;;;;;;5051831;28;20055;-70
2023/12/20 10:46:03;;;;;;;22.02;3.00;;;16.20;1.00;;;;;;5035025;28;20044;-70
2023/12/20 10:48:31;;;;;;;8.65;2.10;;;16.20;1.00;;;;;;5051060;28;20039;-70
2023/12/20 10:50:58;;;;;;;19.35;3.05;;;;;;;;;;5050757;28;20499;-70
2023/12/20 10:53:25;;;;;;;15.52;2.35;;;;;;;;;;5034811;28;20045;-71
2023/12/20 10:55:54;;;;;;;16.10;2.30;;;16.00;1.00;;;;;;5051274;28;20037;-70
2023/12/20 10:58:21;;;;;;;22.35;3.15;;;16.20;1.00;;;;;;5051413;28;20107;-69
2023/12/20 11:00:50;;;;;;;17.60;4.05;;;16.10;1.00;;;;;;5050424;28;20508;-70
2023/12/20 11:03:17;;;;;;;14.30;3.42;;;;;;;;;;5056507;28;20028;-70
2023/12/20 11:05:47;;;;;;;14.77;3.67;;;;;;;;;;5060514;28;20037;-71
2023/12/20 11:08:17;;;;;;;13.63;3.03;;;;;;;;;;5059837;28;20040;-70
2023/12/20 11:11:12;;;;;;;16.52;3.33;;;16.20;1.00;;;;;;5059016;28;20127;-70
2023/12/20 11:13:48;;;;;;;19.13;3.75;;;16.30;1.00;;;;;;5041900;28;20040;-70
2023/12/20 11:16:14;;;;;;;13.77;3.60;;;;;;;;;;5030716;28;20399;-68
2023/12/20 11:18:40;;;;;;;17.40;3.90;;;16.10;1.00;;;;;;5061388;28;20048;-70
2023/12/20 11:21:07;;;;;;;17.05;3.40;;;;;;;;;;5070500;28;20038;-68
2023/12/20 11:23:34;;;;;;;14.27;3.30;;;;;;;;;;5056544;28;20037;-70
2023/12/20 11:26:00;;;;;;;15.77;3.47;;;;;;;;;;5050968;28;20447;-70
2023/12/20 11:28:27;;;;;;;14.63;4.18;;;;;;;;;;5050476;28;20044;-70
2023/12/20 11:30:59;;;;;;;15.18;3.70;;;;;;;;;;5050250;28;20390;-70
2023/12/20 11:33:26;;;;;;;17.27;3.17;;;16.70;1.00;;;;;;5051013;28;20071;-70
2023/12/20 11:35:55;;;;;;;13.55;3.85;;;16.60;1.00;;;;;;5033886;28;20520;-69
2023/12/20 11:38:21;;;;;;;8.90;3.17;;;;;;;;;;5050586;28;20401;-69
2023/12/20 11:40:50;;;;;;;9.70;2.65;;;16.80;1.00;;;;;;5026620;28;20048;-69
2023/12/20 11:43:34;;;;;;;13.90;3.10;;;16.70;1.00;;;;;;5046572;28;20470;-69
2023/12/20 11:46:08;;;;;;;14.55;2.65;;;16.70;1.00;;;;;;5044517;28;20037;-68
2023/12/20 11:48:35;;;;;;;23.15;4.07;;;;;;;;;;5046214;28;20049;-69
2023/12/20 11:51:03;;;;;;;11.63;2.78;;;;;;;;;;5045536;28;20098;-72
2023/12/20 11:53:30;;;;;;;16.50;3.53;;;16.80;1.00;;;;;;5027627;28;20044;-71
2023/12/20 11:55:57;;;;;;;32.40;3.90;;;;;;;;;;5046203;28;20045;-72
2023/12/20 11:58:22;;;;;;;10.77;3.55;;;16.80;1.00;;;;;;5028411;28;20472;-72
2023/12/20 12:00:51;;;;;;;14.65;2.53;;;;;;;;;;5045525;28;20319;-72
2023/12/20 12:03:17;;;;;;;19.42;3.25;;;;;;;;;;5046280;28;20048;-70
2023/12/20 12:05:46;;;;;;;12.18;2.58;;;17.10;1.00;;;;;;5047083;28;20037;-72
2023/12/20 12:08:12;;;;;;;12.55;2.13;;;;;;;;;;5029408;28;20404;-72
2023/12/20 12:10:37;;;;;;;20.95;3.15;;;17.00;1.00;;;;;;5045413;28;20048;-70
2023/12/20 12:13:03;;;;;;;12.68;3.22;;;16.90;1.00;;;;;;5047310;28;20037;-72
2023/12/20 12:15:30;;;;;;;15.65;2.97;;;;;;;;;;5044677;28;20060;-72
2023/12/20 12:17:56;;;;;;;16.30;3.05;;;16.70;1.00;;;;;;5046121;28;20355;-72
2023/12/20 12:20:23;;;;;;;17.42;3.20;;;;;;;;;;5047865;28;20040;-71
2023/12/20 12:22:59;;;;;;;14.10;2.80;;;16.90;1.00;;;;;;5052486;28;20040;-72
2023/12/20 12:25:26;;;;;;;13.82;2.42;;;16.60;1.00;;;;;;5056735;28;20511;-72
2023/12/20 12:27:52;;;;;;;15.00;3.28;;;16.70;1.00;;;;;;5056701;28;20041;-72
2023/12/20 12:30:18;;;;;;;15.35;2.30;;;16.70;1.00;;;;;;5056504;28;20083;-72
2023/12/20 12:32:48;;;;;;;17.40;2.78;;;;;;;;;;5056049;28;20036;-72
2023/12/20 12:35:14;;;;;;;21.33;3.05;;;16.60;1.00;;;;;;5056140;28;20047;-72
2023/12/20 12:37:41;;;;;;;19.55;2.80;;;16.80;1.00;;;;;;5056614;28;20136;-72
2023/12/20 12:40:10;;;;;;;12.65;2.88;;;16.50;1.00;;;;;;5056658;28;20056;-72
2023/12/20 12:42:37;;;;;;;10.88;2.35;;;;;;;;;;5056217;28;20049;-72
2023/12/20 12:45:03;;;;;;;10.73;2.53;;;16.30;1.00;;;;;;5056279;28;20504;-72
2023/12/20 12:47:29;;;;;;;15.50;3.35;;;;;;;;;;5056423;28;20431;-72
2023/12/20 12:49:54;;;;;;;10.38;2.13;;;16.20;1.00;;;;;;5065815;28;20035;-72
2023/12/20 12:52:20;;;;;;;12.68;2.47;;;;;;;;;;5066204;28;20033;-72
2023/12/20 12:54:46;;;;;;;11.20;3.58;;;16.20;1.00;;;;;;5076921;28;20106;-72
2023/12/20 12:57:13;;;;;;;13.15;2.30;;;;;;;;;;5059642;28;20040;-71
2023/12/20 12:59:39;;;;;;;10.40;1.92;;;;;;;;;;5076354;28;20119;-72
2023/12/20 13:02:04;;;;;;;12.07;2.10;;;16.00;1.00;;;;;;5059085;28;20044;-72
2023/12/20 13:04:30;;;;;;;13.35;1.92;;;;;;;;;;5076238;28;20033;-71
2023/12/20 13:06:57;;;;;;;9.60;1.83;;;;;;;;;;5076373;28;20036;-71
2023/12/20 13:09:23;;;;;;;8.70;1.92;;;16.10;1.00;;;;;;5077617;28;20044;-71
2023/12/20 13:11:48;;;;;;;8.50;1.60;;;16.00;1.00;;;;;;5076881;28;20626;-71
2023/12/20 13:14:16;;;;;;;9.25;2.13;;;;;;;;;;5076389;28;20082;-71
2023/12/20 13:16:42;;;;;;;11.35;2.17;;;;;;;;;;5076279;28;20044;-72
2023/12/20 13:19:09;;;;;;;15.00;2.83;;;16.20;1.00;;;;;;5060172;28;20451;-71
2023/12/20 13:21:35;;;;;;;12.80;1.85;;;;;;;;;;5055517;28;20067;-71
2023/12/20 13:24:01;;;;;;;7.50;2.00;;;16.00;3.10;;;;;;5039530;28;20041;-71
2023/12/20 13:26:27;;;;;;;10.82;1.75;;;;;;;;;;5055916;28;20087;-71
2023/12/20 13:28:54;;;;;;;12.52;1.95;;;16.00;1.00;;;;;;5063705;28;20416;-71
2023/12/20 13:31:20;;;;;;;7.00;1.88;;;;;;;;;;5049173;28;20547;-71
2023/12/20 13:33:46;;;;;;;8.10;2.45;;;;;;;;;;5055954;28;20045;-72
2023/12/20 13:36:13;;;;;;;7.70;1.60;;;15.80;1.00;;;;;;5052717;28;20045;-71
2023/12/20 13:38:39;;;;;;;11.35;2.03;;;;;;;;;;5036399;28;20044;-71
2023/12/20 13:41:05;;;;;;;8.30;1.90;;;;;;;;;;5062517;28;20037;-71
2023/12/20 13:43:32;;;;;;;12.15;2.00;;;;;;;;;;5072740;28;20036;-71
2023/12/20 13:45:59;;;;;;;9.00;2.17;;;16.00;6.60;;;;;;5072718;28;20033;-71